createdAt,value
2023-03-20T00:01:17.399Z,7.13
2023-03-20T00:03:45.547Z,7.40
2023-03-20T00:06:15.549Z,7.17
2023-03-20T00:08:45.702Z,7.87
2023-03-20T00:11:23.482Z,6.90
2023-03-20T00:13:54.241Z,7.80
2023-03-20T00:16:22.510Z,7.57
2023-03-20T00:18:50.475Z,7.30
2023-03-20T00:21:19.095Z,7.23
2023-03-20T00:23:47.677Z,7.73
2023-03-20T00:26:18.264Z,7.33
2023-03-20T00:28:48.160Z,6.87
2023-03-20T00:31:21.620Z,8.17
2023-03-20T00:33:50.705Z,7.13
2023-03-20T00:36:18.690Z,6.70
2023-03-20T00:38:46.681Z,7.63
2023-03-20T00:41:21.287Z,7.20
2023-03-20T00:43:50.622Z,7.40
2023-03-20T00:46:20.749Z,6.90
2023-03-20T00:48:50.630Z,7.17
2023-03-20T00:51:18.605Z,7.03
2023-03-20T00:53:46.284Z,8.10
2023-03-20T00:56:29.290Z,8.20
2023-03-20T00:58:57.778Z,7.70
2023-03-20T01:01:27.556Z,7.20
2023-03-20T01:03:55.440Z,8.27
2023-03-20T01:06:23.114Z,6.30
2023-03-20T01:08:51.133Z,7.30
2023-03-20T01:11:22.872Z,7.40
2023-03-20T01:13:53.129Z,7.00
2023-03-20T01:16:23.945Z,7.20
2023-03-20T01:18:53.081Z,7.00
2023-03-20T01:21:21.864Z,7.53
2023-03-20T01:23:50.715Z,6.90
2023-03-20T01:26:28.165Z,7.37
2023-03-20T01:28:56.348Z,7.90
2023-03-20T01:31:24.482Z,7.63
2023-03-20T01:33:53.734Z,7.80
2023-03-20T01:36:23.321Z,6.80
2023-03-20T01:38:55.099Z,7.13
2023-03-20T01:41:24.450Z,6.57
2023-03-20T01:43:52.876Z,8.80
2023-03-20T01:46:24.519Z,7.30
2023-03-20T01:49:06.661Z,7.30
2023-03-20T01:51:37.283Z,7.43
2023-03-20T01:54:14.069Z,7.50
2023-03-20T01:56:58.442Z,6.63
2023-03-20T01:59:29.577Z,7.53
2023-03-20T02:02:01.503Z,6.67
2023-03-20T02:04:31.958Z,7.33
2023-03-20T02:07:10.678Z,7.33
2023-03-20T02:09:41.887Z,7.07
2023-03-20T02:12:16.411Z,7.50
2023-03-20T02:14:44.601Z,7.20
2023-03-20T02:17:23.975Z,7.93
2023-03-20T02:20:08.150Z,7.57
2023-03-20T02:22:59.468Z,7.20
2023-03-20T02:25:41.865Z,8.27
2023-03-20T02:28:24.248Z,7.97
2023-03-20T02:31:01.135Z,8.00
2023-03-20T02:33:56.587Z,7.73
2023-03-20T02:36:36.339Z,8.30
2023-03-20T02:39:20.924Z,8.90
2023-03-20T02:41:52.799Z,8.20
2023-03-20T02:44:24.049Z,7.47
2023-03-20T02:46:58.485Z,8.00
2023-03-20T02:49:36.859Z,8.20
2023-03-20T02:52:08.431Z,8.43
2023-03-20T02:54:43.791Z,8.40
2023-03-20T02:57:15.736Z,8.53
2023-03-20T02:59:47.185Z,8.37
2023-03-20T03:02:17.057Z,8.20
2023-03-20T03:04:49.642Z,8.07
2023-03-20T03:07:21.249Z,7.80
2023-03-20T03:09:52.837Z,7.07
2023-03-20T03:12:22.448Z,8.07
2023-03-20T03:14:51.972Z,7.43
2023-03-20T03:17:21.346Z,7.80
2023-03-20T03:19:50.978Z,7.60
2023-03-20T03:22:20.143Z,7.30
2023-03-20T03:24:48.728Z,8.20
2023-03-20T03:27:21.338Z,7.83
2023-03-20T03:29:52.462Z,8.93
2023-03-20T03:32:24.268Z,8.70
2023-03-20T03:34:52.448Z,7.37
2023-03-20T03:37:24.973Z,7.57
2023-03-20T03:39:54.345Z,7.80
2023-03-20T03:42:28.016Z,9.17
2023-03-20T03:44:57.532Z,8.20
2023-03-20T03:47:31.031Z,8.00
2023-03-20T03:50:00.596Z,9.90
2023-03-20T03:52:29.624Z,7.63
2023-03-20T03:54:59.831Z,8.20
2023-03-20T03:57:34.745Z,8.17
2023-03-20T04:00:06.432Z,8.47
2023-03-20T04:02:41.735Z,9.10
2023-03-20T04:05:10.739Z,9.17
2023-03-20T04:07:38.450Z,8.67
2023-03-20T04:10:07.487Z,9.57
2023-03-20T04:12:38.649Z,9.00
2023-03-20T04:15:10.974Z,9.10
2023-03-20T04:17:39.193Z,9.13
2023-03-20T04:20:08.954Z,9.30
2023-03-20T04:22:37.016Z,9.60
2023-03-20T04:25:09.032Z,9.13
2023-03-20T04:27:38.328Z,9.77
2023-03-20T04:30:13.949Z,9.30
2023-03-20T04:33:00.136Z,9.30
2023-03-20T04:35:36.783Z,10.03
2023-03-20T04:38:11.830Z,10.00
2023-03-20T04:40:40.896Z,9.80
2023-03-20T04:43:10.881Z,10.43
2023-03-20T04:45:40.272Z,10.00
2023-03-20T04:48:09.586Z,10.33
2023-03-20T04:50:37.897Z,9.50
2023-03-20T04:53:07.765Z,11.00
2023-03-20T04:55:35.766Z,10.30
2023-03-20T04:58:03.629Z,11.27
2023-03-20T05:00:33.492Z,11.37
2023-03-20T05:03:01.640Z,10.67
2023-03-20T05:05:30.459Z,10.30
2023-03-20T05:07:58.800Z,10.20
2023-03-20T05:10:33.501Z,10.80
2023-03-20T05:13:10.486Z,11.73
2023-03-20T05:15:39.773Z,10.20
2023-03-20T05:18:26.363Z,10.33
2023-03-20T05:21:31.029Z,11.43
2023-03-20T05:24:10.656Z,9.70
2023-03-20T05:26:57.245Z,9.97
2023-03-20T05:29:44.183Z,11.60
2023-03-20T05:32:41.548Z,10.77
2023-03-20T05:35:31.471Z,11.20
2023-03-20T05:38:13.329Z,11.53
2023-03-20T05:41:00.252Z,11.87
2023-03-20T05:43:47.093Z,12.00
2023-03-20T05:46:33.456Z,11.77
2023-03-20T05:49:08.867Z,12.57
2023-03-20T05:51:55.024Z,12.63
2023-03-20T05:54:41.139Z,13.87
2023-03-20T05:57:39.116Z,14.10
2023-03-20T06:00:27.477Z,14.23
2023-03-20T06:03:16.048Z,15.47
2023-03-20T06:06:00.175Z,15.90
2023-03-20T06:08:28.138Z,14.53
2023-03-20T06:10:55.944Z,15.67
2023-03-20T06:13:24.039Z,14.60
2023-03-20T06:15:51.828Z,16.10
2023-03-20T06:18:20.697Z,16.20
2023-03-20T06:20:53.053Z,17.00
2023-03-20T06:23:22.355Z,18.17
2023-03-20T06:25:50.686Z,18.87
2023-03-20T06:28:20.661Z,18.00
2023-03-20T06:30:53.317Z,19.10
2023-03-20T06:33:22.292Z,21.20
2023-03-20T06:35:58.975Z,23.20
2023-03-20T06:38:30.587Z,29.10
2023-03-20T06:41:00.159Z,27.93
2023-03-20T06:43:28.863Z,27.40
2023-03-20T06:45:56.797Z,22.63
2023-03-20T06:48:27.764Z,22.13
2023-03-20T06:50:56.411Z,20.77
2023-03-20T06:53:32.473Z,21.70
2023-03-20T06:56:16.827Z,23.20
2023-03-20T06:58:44.831Z,25.23
2023-03-20T07:01:13.672Z,24.13
2023-03-20T07:03:42.381Z,25.40
2023-03-20T07:06:11.629Z,25.13
2023-03-20T07:08:40.890Z,25.50
2023-03-20T07:11:09.191Z,25.40
2023-03-20T07:13:38.120Z,26.83
2023-03-20T07:16:29.812Z,29.47
2023-03-20T07:18:57.744Z,30.23
2023-03-20T07:21:26.687Z,29.20
2023-03-20T07:23:55.940Z,32.30
2023-03-20T07:26:24.221Z,33.60
2023-03-20T07:28:52.839Z,35.83
2023-03-20T07:31:25.188Z,34.27
2023-03-20T07:34:09.797Z,34.20
2023-03-20T07:36:41.959Z,35.40
2023-03-20T07:39:12.385Z,35.37
2023-03-20T07:41:44.056Z,33.23
2023-03-20T07:44:23.937Z,32.40
2023-03-20T07:46:54.717Z,32.83
2023-03-20T07:49:24.979Z,31.90
2023-03-20T07:51:54.398Z,34.57
2023-03-20T07:54:25.243Z,32.70
2023-03-20T07:56:53.082Z,34.47
2023-03-20T07:59:20.896Z,35.93
2023-03-20T08:01:48.617Z,35.13
2023-03-20T08:04:19.490Z,29.53
2023-03-20T08:06:47.683Z,27.50
2023-03-20T08:09:15.691Z,27.00
2023-03-20T08:11:45.378Z,26.40
2023-03-20T08:14:13.117Z,24.07
2023-03-20T08:16:41.042Z,21.90
2023-03-20T08:19:08.956Z,21.67
2023-03-20T08:21:36.853Z,22.87
2023-03-20T08:24:05.152Z,26.13
2023-03-20T08:26:33.042Z,25.00
2023-03-20T08:29:02.111Z,25.80
2023-03-20T08:31:29.935Z,25.70
2023-03-20T08:33:57.713Z,25.27
2023-03-20T08:36:25.612Z,23.60
2023-03-20T08:38:53.654Z,22.77
2023-03-20T08:41:21.521Z,24.50
2023-03-20T08:43:49.252Z,21.37
2023-03-20T08:46:18.590Z,19.97
2023-03-20T08:48:46.834Z,19.63
2023-03-20T08:51:15.168Z,19.43
2023-03-20T08:53:43.166Z,19.60
2023-03-20T08:56:11.344Z,18.10
2023-03-20T08:58:39.454Z,18.10
2023-03-20T09:01:08.112Z,17.53
2023-03-20T09:03:37.484Z,17.33
2023-03-20T09:06:06.880Z,16.33
2023-03-20T09:08:35.130Z,15.00
2023-03-20T09:11:02.938Z,15.70
2023-03-20T09:13:30.868Z,15.43
2023-03-20T09:15:58.788Z,16.10
2023-03-20T09:18:28.672Z,15.90
2023-03-20T09:20:57.906Z,15.27
2023-03-20T09:23:25.977Z,14.53
2023-03-20T09:25:53.660Z,14.67
2023-03-20T09:28:21.644Z,14.20
2023-03-20T09:30:49.985Z,14.50
2023-03-20T09:33:18.755Z,14.73
2023-03-20T09:35:46.913Z,15.27
2023-03-20T09:38:16.349Z,13.03
2023-03-20T09:40:52.098Z,13.60
2023-03-20T09:43:23.818Z,13.27
2023-03-20T09:45:57.878Z,13.63
2023-03-20T09:48:31.519Z,12.23
2023-03-20T09:51:01.619Z,12.77
2023-03-20T09:53:33.108Z,12.87
2023-03-20T09:56:01.573Z,12.77
2023-03-20T09:58:32.384Z,12.63
2023-03-20T10:01:02.253Z,12.73
2023-03-20T10:03:33.632Z,14.50
2023-03-20T10:06:03.709Z,13.50
2023-03-20T10:08:34.628Z,13.30
2023-03-20T10:11:07.239Z,13.50
2023-03-20T10:13:49.057Z,13.70
2023-03-20T10:16:20.939Z,12.60
2023-03-20T10:18:51.228Z,13.37
2023-03-20T10:21:24.296Z,11.67
2023-03-20T10:23:56.421Z,11.07
2023-03-20T10:26:26.469Z,11.40
2023-03-20T10:28:57.405Z,11.33
2023-03-20T10:31:32.452Z,9.63
2023-03-20T10:34:07.275Z,10.73
2023-03-20T10:36:44.323Z,10.57
2023-03-20T10:39:18.651Z,13.37
2023-03-20T10:41:54.284Z,13.00
2023-03-20T10:44:25.706Z,10.50
2023-03-20T10:46:54.850Z,11.60
2023-03-20T10:49:28.447Z,10.20
2023-03-20T10:51:58.503Z,10.67
2023-03-20T10:54:28.772Z,10.10
2023-03-20T10:56:58.220Z,10.47
2023-03-20T10:59:27.340Z,9.93
2023-03-20T11:01:55.494Z,11.10
2023-03-20T11:04:23.755Z,15.40
2023-03-20T11:06:55.040Z,10.30
2023-03-20T11:09:24.807Z,8.73
2023-03-20T11:11:57.356Z,9.47
2023-03-20T11:14:27.023Z,8.70
2023-03-20T11:16:56.580Z,9.90
2023-03-20T11:19:24.981Z,10.20
2023-03-20T11:21:55.784Z,8.27
2023-03-20T11:24:25.520Z,8.70
2023-03-20T11:26:54.869Z,9.40
2023-03-20T11:29:26.084Z,8.37
2023-03-20T11:31:54.068Z,7.43
2023-03-20T11:34:27.641Z,8.13
2023-03-20T11:37:09.257Z,7.97
2023-03-20T11:39:39.861Z,8.17
2023-03-20T11:42:22.635Z,8.23
2023-03-20T11:44:58.227Z,16.67
2023-03-20T11:47:27.426Z,13.20
2023-03-20T11:49:56.831Z,11.67
2023-03-20T11:52:26.214Z,10.27
2023-03-20T11:54:55.369Z,8.63
2023-03-20T11:57:35.182Z,7.73
2023-03-20T12:00:04.454Z,8.30
2023-03-20T12:02:51.619Z,8.50
2023-03-20T12:05:21.878Z,8.13
2023-03-20T12:07:50.635Z,7.67
2023-03-20T12:10:19.540Z,8.83
2023-03-20T12:12:50.812Z,8.10
2023-03-20T12:15:22.071Z,8.57
2023-03-20T12:17:53.468Z,8.17
2023-03-20T12:20:26.207Z,8.90
2023-03-20T12:22:57.642Z,7.80
2023-03-20T12:25:27.491Z,8.37
2023-03-20T12:28:03.650Z,8.10
2023-03-20T12:30:42.173Z,7.90
2023-03-20T12:33:13.662Z,8.60
2023-03-20T12:35:44.830Z,8.60
2023-03-20T12:38:18.512Z,7.67
2023-03-20T12:40:49.017Z,8.87
2023-03-20T12:43:23.531Z,7.80
2023-03-20T12:45:56.818Z,8.33
2023-03-20T12:48:38.591Z,8.07
2023-03-20T12:51:08.902Z,8.23
2023-03-20T12:53:42.390Z,8.47
2023-03-20T12:56:37.468Z,8.83
2023-03-20T12:59:09.969Z,8.80
2023-03-20T13:01:41.853Z,8.83
2023-03-20T13:04:24.388Z,9.63
2023-03-20T13:06:53.253Z,9.33
2023-03-20T13:09:45.280Z,9.13
2023-03-20T13:12:18.548Z,9.77
2023-03-20T13:14:49.693Z,9.53
2023-03-20T13:17:24.729Z,10.57
2023-03-20T13:19:56.449Z,11.13
2023-03-20T13:22:27.047Z,10.30
2023-03-20T13:24:56.131Z,10.27
2023-03-20T13:27:37.363Z,10.73
2023-03-20T13:30:13.217Z,9.93
2023-03-20T13:32:47.080Z,10.10
2023-03-20T13:35:23.227Z,10.33
2023-03-20T13:37:52.970Z,10.60
2023-03-20T13:40:22.132Z,10.20
2023-03-20T13:42:53.023Z,10.50
2023-03-20T13:45:32.263Z,10.63
2023-03-20T13:48:03.005Z,12.10
2023-03-20T13:50:42.266Z,11.93
2023-03-20T13:53:13.804Z,11.33
2023-03-20T13:55:46.926Z,11.17
2023-03-20T13:58:20.840Z,11.67
2023-03-20T14:00:51.965Z,11.53
2023-03-20T14:03:21.171Z,12.00
2023-03-20T14:05:48.917Z,13.90
2023-03-20T14:08:24.402Z,11.67
2023-03-20T14:11:06.208Z,12.00
2023-03-20T14:13:35.708Z,13.00
2023-03-20T14:16:08.616Z,11.93
2023-03-20T14:18:38.212Z,12.23
2023-03-20T14:21:12.060Z,11.90
2023-03-20T14:23:44.417Z,12.13
2023-03-20T14:26:19.021Z,12.53
2023-03-20T14:28:53.835Z,13.77
2023-03-20T14:31:25.154Z,13.43
2023-03-20T14:34:01.116Z,12.70
2023-03-20T14:36:41.906Z,13.67
2023-03-20T14:39:21.826Z,12.47
2023-03-20T14:41:55.840Z,13.87
2023-03-20T14:44:28.749Z,13.33
2023-03-20T14:47:02.796Z,14.63
2023-03-20T14:49:49.581Z,14.73
2023-03-20T14:52:23.638Z,14.43
2023-03-20T14:54:54.320Z,13.70
2023-03-20T14:57:30.826Z,12.67
2023-03-20T14:59:58.962Z,13.13
2023-03-20T15:02:30.834Z,12.53
2023-03-20T15:04:58.861Z,14.30
2023-03-20T15:07:27.960Z,12.40
2023-03-20T15:09:59.147Z,14.57
2023-03-20T15:12:28.333Z,13.63
2023-03-20T15:14:57.330Z,13.67
2023-03-20T15:17:26.803Z,14.93
2023-03-20T15:20:01.662Z,13.20
2023-03-20T15:22:29.537Z,15.27
2023-03-20T15:24:58.385Z,14.43
2023-03-20T15:27:29.443Z,14.00
2023-03-20T15:29:58.514Z,13.80
2023-03-20T15:32:26.270Z,13.80
2023-03-20T15:34:54.532Z,12.73
2023-03-20T15:37:24.741Z,15.00
2023-03-20T15:39:55.356Z,14.03
2023-03-20T15:42:24.552Z,14.63
2023-03-20T15:44:54.635Z,14.07
2023-03-20T15:47:23.098Z,14.90
2023-03-20T15:49:52.741Z,14.83
2023-03-20T15:52:28.122Z,14.07
2023-03-20T15:54:56.648Z,15.73
2023-03-20T15:57:26.269Z,14.27
2023-03-20T15:59:54.758Z,14.77
2023-03-20T16:02:22.493Z,14.20
2023-03-20T16:04:52.678Z,14.73
2023-03-20T16:07:23.361Z,14.27
2023-03-20T16:09:52.670Z,14.10
2023-03-20T16:12:21.257Z,14.37
2023-03-20T16:14:52.621Z,16.73
2023-03-20T16:17:22.455Z,14.70
2023-03-20T16:19:51.913Z,13.50
2023-03-20T16:22:23.224Z,14.23
2023-03-20T16:24:55.623Z,14.60
2023-03-20T16:27:25.742Z,15.27
2023-03-20T16:29:54.629Z,16.10
2023-03-20T16:32:27.937Z,15.23
2023-03-20T16:34:57.133Z,14.77
2023-03-20T16:37:26.585Z,15.30
2023-03-20T16:40:16.251Z,15.53
2023-03-20T16:42:44.402Z,15.10
2023-03-20T16:45:17.862Z,15.60
2023-03-20T16:47:46.005Z,15.13
2023-03-20T16:50:18.832Z,15.80
2023-03-20T16:52:47.938Z,14.80
2023-03-20T16:55:18.971Z,15.03
2023-03-20T16:57:47.985Z,17.90
2023-03-20T17:00:24.248Z,15.10
2023-03-20T17:02:52.994Z,15.20
2023-03-20T17:05:21.872Z,15.27
2023-03-20T17:07:57.247Z,14.20
2023-03-20T17:10:28.055Z,14.93
2023-03-20T17:12:56.074Z,14.67
2023-03-20T17:15:25.569Z,16.40
2023-03-20T17:17:53.492Z,15.93
2023-03-20T17:20:22.208Z,15.03
2023-03-20T17:22:50.049Z,19.40
2023-03-20T17:25:17.777Z,16.70
2023-03-20T17:27:47.900Z,15.63
2023-03-20T17:30:18.057Z,14.67
2023-03-20T17:32:46.344Z,15.00
2023-03-20T17:35:14.507Z,16.60
2023-03-20T17:37:42.293Z,17.90
2023-03-20T17:40:15.624Z,18.83
2023-03-20T17:42:43.549Z,14.73
2023-03-20T17:45:15.520Z,17.90
2023-03-20T17:47:43.859Z,16.00
2023-03-20T17:50:17.779Z,15.07
2023-03-20T17:52:45.540Z,15.80
2023-03-20T17:55:13.467Z,16.90
2023-03-20T17:57:41.749Z,18.77
2023-03-20T18:00:11.358Z,15.57
2023-03-20T18:02:40.991Z,17.17
2023-03-20T18:05:09.923Z,16.60
2023-03-20T18:07:37.818Z,17.57
2023-03-20T18:10:06.665Z,16.23
2023-03-20T18:12:35.046Z,16.33
2023-03-20T18:15:03.108Z,17.47
2023-03-20T18:17:31.050Z,16.40
2023-03-20T18:20:01.633Z,16.43
2023-03-20T18:22:29.796Z,15.27
2023-03-20T18:24:57.483Z,15.70
2023-03-20T18:27:25.273Z,15.57
2023-03-20T18:29:53.337Z,15.27
2023-03-20T18:32:21.033Z,15.23
2023-03-20T18:34:48.920Z,17.10
2023-03-20T18:37:18.636Z,15.43
2023-03-20T18:39:47.917Z,16.30
2023-03-20T18:42:17.137Z,15.20
2023-03-20T18:44:45.566Z,15.90
2023-03-20T18:47:13.272Z,16.10
2023-03-20T18:49:41.232Z,18.43
2023-03-20T18:52:09.040Z,28.60
2023-03-20T18:54:38.032Z,28.73
2023-03-20T18:57:05.744Z,28.50
2023-03-20T18:59:33.838Z,15.90
2023-03-20T19:02:01.906Z,16.67
2023-03-20T19:04:29.722Z,16.43
2023-03-20T19:06:57.910Z,16.00
2023-03-20T19:09:25.922Z,16.73
2023-03-20T19:11:55.001Z,16.73
2023-03-20T19:14:23.000Z,16.70
2023-03-20T19:16:51.189Z,17.30
2023-03-20T19:19:19.004Z,15.20
2023-03-20T19:21:47.157Z,16.57
2023-03-20T19:24:15.000Z,16.33
2023-03-20T19:26:42.653Z,15.73
2023-03-20T19:29:14.186Z,15.57
2023-03-20T19:31:42.003Z,15.30
2023-03-20T19:34:28.056Z,14.90
2023-03-20T19:36:57.613Z,16.03
2023-03-20T19:39:25.406Z,16.27
2023-03-20T19:41:53.121Z,15.93
2023-03-20T19:44:22.513Z,17.37
2023-03-20T19:46:50.822Z,16.33
2023-03-20T19:49:20.283Z,16.70
2023-03-20T19:51:49.213Z,16.20
2023-03-20T19:54:16.993Z,15.50
2023-03-20T19:56:45.016Z,15.60
2023-03-20T19:59:16.233Z,15.80
2023-03-20T20:01:46.772Z,15.53
2023-03-20T20:04:14.799Z,15.70
2023-03-20T20:06:42.663Z,15.90
2023-03-20T20:09:10.560Z,15.50
2023-03-20T20:11:38.276Z,15.50
2023-03-20T20:14:08.633Z,17.00
2023-03-20T20:16:37.902Z,17.17
2023-03-20T20:19:07.247Z,16.33
2023-03-20T20:24:23.587Z,15.87
2023-03-20T20:26:55.465Z,14.53
2023-03-20T20:29:28.356Z,15.90
2023-03-20T20:31:56.192Z,13.80
2023-03-20T20:35:22.443Z,16.03
2023-03-20T20:38:08.936Z,14.10
2023-03-20T20:40:02.176Z,13.30
2023-03-20T20:42:30.167Z,13.23
2023-03-20T20:44:57.925Z,14.60
2023-03-20T20:47:25.629Z,13.63
2023-03-20T20:49:55.264Z,13.30
2023-03-20T20:52:23.059Z,12.73
2023-03-20T20:54:50.915Z,12.23
2023-03-20T20:57:18.799Z,11.70
2023-03-20T20:59:46.462Z,12.93
2023-03-20T21:02:15.792Z,11.53
2023-03-20T21:04:44.677Z,11.93
2023-03-20T21:07:13.952Z,11.97
2023-03-20T21:09:41.961Z,10.87
2023-03-20T21:12:26.429Z,12.10
2023-03-20T21:15:00.511Z,13.00
2023-03-20T21:17:28.971Z,13.40
2023-03-20T21:19:57.080Z,11.00
2023-03-20T21:22:26.238Z,13.03
2023-03-20T21:25:11.087Z,12.80
2023-03-20T21:27:41.712Z,13.67
2023-03-20T21:30:10.924Z,13.87
2023-03-20T21:32:39.786Z,14.93
2023-03-20T21:35:09.230Z,14.73
2023-03-20T21:40:26.735Z,15.30
2023-03-20T21:42:54.494Z,15.47
2023-03-20T21:48:58.743Z,15.90
2023-03-20T21:51:53.145Z,18.50
2023-03-20T21:54:45.904Z,16.90
2023-03-20T21:57:14.085Z,15.93
2023-03-20T22:02:21.317Z,16.23
2023-03-20T22:05:41.912Z,15.63
2023-03-20T22:08:18.497Z,16.20
2023-03-20T22:25:16.620Z,14.70
2023-03-20T22:28:08.490Z,16.33
2023-03-20T22:36:39.964Z,12.63
2023-03-20T22:47:08.772Z,13.67
2023-03-20T22:49:36.672Z,13.03
2023-03-20T22:52:22.539Z,13.47
2023-03-20T22:54:52.790Z,14.90
2023-03-20T22:57:20.680Z,12.67
2023-03-20T22:59:49.768Z,13.27
2023-03-20T23:02:17.820Z,13.57
2023-03-20T23:04:45.758Z,13.83
2023-03-20T23:07:13.495Z,13.70
2023-03-20T23:09:41.538Z,14.50
2023-03-20T23:12:09.725Z,13.13
2023-03-20T23:14:45.860Z,13.83
2023-03-20T23:17:16.645Z,14.00
2023-03-20T23:19:48.954Z,13.17
2023-03-20T23:22:18.554Z,15.30
2023-03-20T23:24:46.512Z,14.00
2023-03-20T23:27:14.147Z,15.43
2023-03-20T23:29:42.117Z,14.93
2023-03-20T23:32:10.350Z,19.03
2023-03-20T23:34:39.409Z,15.03
2023-03-20T23:37:07.550Z,15.83
2023-03-20T23:42:30.718Z,12.40
2023-03-20T23:45:07.136Z,13.37
2023-03-20T23:47:45.515Z,14.00
2023-03-20T23:50:26.483Z,13.77
2023-03-20T23:53:06.373Z,12.90
2023-03-20T23:55:35.764Z,13.07
2023-03-20T23:58:03.519Z,13.03
